createdAt,value
2018-02-13T00:01:28.452Z,1.10
2018-02-13T00:03:57.332Z,1.10
2018-02-13T00:06:26.194Z,1.10
2018-02-13T00:08:54.301Z,1.10
2018-02-13T00:11:23.182Z,1.20
2018-02-13T00:13:52.078Z,1.20
2018-02-13T00:16:20.165Z,1.20
2018-02-13T00:18:48.287Z,1.20
2018-02-13T00:21:16.392Z,1.20
2018-02-13T00:23:45.264Z,1.20
2018-02-13T00:26:13.365Z,1.20
2018-02-13T00:28:41.472Z,1.20
2018-02-13T00:31:09.611Z,1.20
2018-02-13T00:33:37.719Z,1.20
2018-02-13T00:36:05.839Z,1.20
2018-02-13T00:38:34.711Z,1.10
2018-02-13T00:41:02.823Z,1.10
2018-02-13T00:43:30.975Z,1.10
2018-02-13T00:45:59.873Z,1.20
2018-02-13T00:48:28.773Z,1.10
2018-02-13T00:50:56.935Z,1.20
2018-02-13T00:53:25.847Z,1.10
2018-02-13T00:55:53.955Z,1.10
2018-02-13T00:58:22.057Z,1.20
2018-02-13T01:00:50.962Z,1.10
2018-02-13T01:03:19.835Z,1.10
2018-02-13T01:05:48.703Z,1.10
2018-02-13T01:11:17.551Z,1.10
2018-02-13T01:13:45.751Z,1.10
2018-02-13T01:16:13.851Z,1.10
2018-02-13T01:18:41.955Z,1.00
2018-02-13T01:21:10.851Z,1.00
2018-02-13T01:23:39.843Z,1.00
2018-02-13T01:26:08.711Z,1.00
2018-02-13T01:28:37.582Z,1.00
2018-02-13T01:31:05.809Z,1.00
2018-02-13T01:33:33.971Z,1.00
2018-02-13T01:36:02.875Z,0.90
2018-02-13T01:38:31.763Z,0.90
2018-02-13T01:40:59.874Z,0.90
2018-02-13T01:43:28.747Z,0.90
2018-02-13T01:45:56.869Z,0.90
2018-02-13T01:48:24.983Z,0.90
2018-02-13T01:50:53.094Z,0.80
2018-02-13T01:53:21.306Z,0.80
2018-02-13T01:55:49.510Z,0.80
2018-02-13T01:58:17.599Z,0.80
2018-02-13T02:00:45.818Z,0.80
2018-02-13T02:03:14.826Z,0.90
2018-02-13T02:05:42.992Z,0.90
2018-02-13T02:08:11.858Z,0.90
2018-02-13T02:10:40.734Z,0.90
2018-02-13T02:13:08.944Z,0.90
2018-02-13T02:15:37.942Z,1.00
2018-02-13T02:18:06.108Z,0.90
2018-02-13T02:20:34.978Z,1.00
2018-02-13T02:23:03.119Z,1.00
2018-02-13T02:25:31.254Z,1.10
2018-02-13T02:27:59.359Z,1.10
2018-02-13T02:30:27.483Z,1.10
2018-02-13T02:32:56.376Z,1.10
2018-02-13T02:35:25.274Z,1.10
2018-02-13T02:37:53.402Z,1.10
2018-02-13T02:40:21.498Z,1.10
2018-02-13T02:43:02.316Z,1.20
2018-02-13T02:45:30.568Z,1.20
2018-02-13T02:47:58.731Z,1.20
2018-02-13T02:50:27.616Z,1.20
2018-02-13T02:52:56.608Z,1.20
2018-02-13T02:55:25.492Z,1.20
2018-02-13T02:57:54.366Z,1.20
2018-02-13T03:00:22.470Z,1.20
2018-02-13T03:02:50.626Z,1.30
2018-02-13T03:05:19.530Z,1.30
2018-02-13T03:07:48.401Z,1.30
2018-02-13T03:10:17.278Z,1.30
2018-02-13T03:12:45.480Z,1.30
2018-02-13T03:15:13.590Z,1.30
2018-02-13T03:17:41.719Z,1.30
2018-02-13T03:20:10.605Z,1.30
2018-02-13T03:22:39.474Z,1.30
2018-02-13T03:25:07.670Z,1.30
2018-02-13T03:27:36.561Z,1.30
2018-02-13T03:30:05.422Z,1.30
2018-02-13T03:32:33.658Z,1.30
2018-02-13T03:35:01.798Z,1.30
2018-02-13T03:37:30.670Z,1.30
2018-02-13T03:39:58.861Z,1.30
2018-02-13T03:42:27.752Z,1.20
2018-02-13T03:44:56.743Z,1.20
2018-02-13T03:47:25.634Z,1.20
2018-02-13T03:49:54.527Z,1.20
2018-02-13T03:52:23.401Z,1.20
2018-02-13T03:54:51.505Z,1.20
2018-02-13T03:57:19.615Z,1.20
2018-02-13T03:59:47.716Z,1.20
2018-02-13T04:02:16.623Z,1.20
2018-02-13T04:04:45.499Z,1.20
2018-02-13T04:07:14.403Z,1.20
2018-02-13T04:09:43.268Z,1.20
2018-02-13T04:12:11.387Z,1.20
2018-02-13T04:14:39.495Z,1.20
2018-02-13T04:17:07.596Z,1.20
2018-02-13T04:19:36.503Z,1.20
2018-02-13T04:22:04.666Z,1.20
2018-02-13T04:24:33.563Z,1.20
2018-02-13T04:27:02.428Z,1.20
2018-02-13T04:29:30.535Z,1.10
2018-02-13T04:31:58.708Z,1.20
2018-02-13T04:34:27.586Z,1.20
2018-02-13T04:36:55.771Z,1.20
2018-02-13T04:39:23.882Z,1.10
2018-02-13T04:41:52.103Z,1.10
2018-02-13T04:44:21.094Z,1.10
2018-02-13T04:46:49.983Z,1.10
2018-02-13T04:49:18.879Z,1.10
2018-02-13T04:51:47.054Z,1.10
2018-02-13T04:54:15.174Z,1.10
2018-02-13T04:56:43.400Z,1.10
2018-02-13T04:59:12.262Z,1.20
2018-02-13T05:01:40.462Z,1.20
2018-02-13T05:04:08.588Z,1.20
2018-02-13T05:06:36.702Z,1.20
2018-02-13T05:09:05.595Z,1.20
2018-02-13T05:11:34.474Z,1.20
2018-02-13T05:14:03.370Z,1.20
2018-02-13T05:16:32.366Z,1.20
2018-02-13T05:19:00.472Z,1.20
2018-02-13T05:21:28.576Z,1.20
2018-02-13T05:23:56.690Z,1.20
2018-02-13T05:26:24.814Z,1.20
2018-02-13T05:28:52.918Z,1.20
2018-02-13T05:31:21.786Z,1.10
2018-02-13T05:33:50.694Z,1.10
2018-02-13T05:36:19.582Z,1.10
2018-02-13T05:38:48.454Z,1.10
2018-02-13T05:41:16.650Z,1.10
2018-02-13T05:43:45.656Z,1.10
2018-02-13T05:46:14.532Z,1.10
2018-02-13T05:48:43.390Z,1.10
2018-02-13T05:51:11.498Z,1.10
2018-02-13T05:53:40.386Z,1.00
2018-02-13T05:56:09.270Z,1.00
2018-02-13T05:58:38.172Z,1.00
2018-02-13T06:01:07.041Z,1.00
2018-02-13T06:03:35.156Z,1.00
2018-02-13T06:06:03.278Z,1.00
2018-02-13T06:08:31.574Z,1.00
2018-02-13T06:11:00.443Z,0.90
2018-02-13T06:13:30.070Z,1.00
2018-02-13T06:15:58.960Z,0.90
2018-02-13T06:18:27.854Z,0.90
2018-02-13T06:20:56.732Z,0.90
2018-02-13T06:23:25.733Z,0.90
2018-02-13T06:25:54.623Z,0.90
2018-02-13T06:28:23.485Z,0.90
2018-02-13T06:30:51.692Z,0.90
2018-02-13T06:33:20.566Z,0.90
2018-02-13T06:35:49.458Z,0.80
2018-02-13T06:38:18.337Z,0.80
2018-02-13T06:40:46.429Z,0.80
2018-02-13T06:43:15.314Z,0.80
2018-02-13T06:45:44.213Z,0.80
2018-02-13T06:48:12.398Z,0.80
2018-02-13T06:50:40.525Z,0.80
2018-02-13T06:53:08.727Z,0.80
2018-02-13T06:55:37.635Z,0.80
2018-02-13T06:58:05.795Z,0.70
2018-02-13T07:00:34.687Z,0.80
2018-02-13T07:03:03.591Z,0.80
2018-02-13T07:05:32.481Z,0.80
2018-02-13T07:08:00.637Z,0.80
2018-02-13T07:10:29.543Z,0.80
2018-02-13T07:12:58.442Z,0.80
2018-02-13T07:15:26.591Z,0.70
2018-02-13T07:17:55.483Z,0.80
2018-02-13T07:20:24.371Z,0.80
2018-02-13T07:22:53.263Z,0.80
2018-02-13T07:25:22.181Z,0.80
2018-02-13T07:27:50.327Z,0.80
2018-02-13T07:30:18.443Z,0.80
2018-02-13T07:32:46.555Z,0.90
2018-02-13T07:35:15.683Z,0.90
2018-02-13T07:37:43.795Z,0.90
2018-02-13T07:40:11.907Z,1.00
2018-02-13T07:42:40.911Z,1.00
2018-02-13T07:45:09.763Z,1.00
2018-02-13T07:47:37.971Z,1.00
2018-02-13T07:50:06.169Z,1.10
2018-02-13T07:52:34.307Z,1.10
2018-02-13T07:55:03.299Z,1.10
2018-02-13T07:57:32.291Z,1.20
2018-02-13T08:00:00.426Z,1.10
2018-02-13T08:02:28.525Z,1.20
2018-02-13T08:04:57.439Z,1.30
2018-02-13T08:07:25.608Z,1.20
2018-02-13T08:09:53.707Z,1.30
2018-02-13T08:12:21.811Z,1.40
2018-02-13T08:14:49.963Z,1.40
2018-02-13T08:17:18.194Z,1.50
2018-02-13T08:19:47.082Z,1.50
2018-02-13T08:22:15.970Z,1.60
2018-02-13T08:24:44.863Z,1.60
2018-02-13T08:27:13.138Z,1.60
2018-02-13T08:29:42.971Z,1.70
2018-02-13T08:32:11.076Z,1.70
2018-02-13T08:34:39.203Z,1.70
2018-02-13T08:37:07.350Z,1.70
2018-02-13T08:39:36.259Z,1.80
2018-02-13T08:42:05.154Z,1.90
2018-02-13T08:44:33.322Z,1.90
2018-02-13T08:47:01.470Z,1.90
2018-02-13T08:49:29.574Z,2.00
2018-02-13T08:51:57.690Z,2.10
2018-02-13T08:54:25.910Z,2.10
2018-02-13T08:56:54.802Z,2.20
2018-02-13T08:59:23.667Z,2.30
2018-02-13T09:01:51.791Z,2.20
2018-02-13T09:04:19.900Z,2.30
2018-02-13T09:06:48.261Z,2.30
2018-02-13T09:09:16.346Z,2.30
2018-02-13T09:11:44.562Z,2.40
2018-02-13T09:14:12.678Z,2.50
2018-02-13T09:16:40.828Z,2.50
2018-02-13T09:19:08.974Z,2.50
2018-02-13T09:21:37.122Z,2.60
2018-02-13T09:24:05.231Z,2.70
2018-02-13T09:26:33.390Z,2.70
2018-02-13T09:29:02.288Z,2.80
2018-02-13T09:31:30.452Z,2.80
2018-02-13T09:33:59.361Z,2.90
2018-02-13T09:36:27.515Z,2.90
2018-02-13T09:38:56.395Z,3.00
2018-02-13T09:41:25.272Z,3.10
2018-02-13T09:43:53.470Z,3.00
2018-02-13T09:46:22.365Z,3.20
2018-02-13T09:48:51.246Z,3.20
2018-02-13T09:51:20.170Z,3.30
2018-02-13T09:53:48.363Z,3.30
2018-02-13T09:56:16.496Z,3.40
2018-02-13T09:58:44.669Z,3.40
2018-02-13T10:01:12.821Z,3.40
2018-02-13T10:03:41.690Z,3.60
2018-02-13T10:06:09.851Z,3.50
2018-02-13T10:08:38.004Z,3.60
2018-02-13T10:11:06.130Z,3.60
2018-02-13T10:13:35.028Z,3.70
2018-02-13T10:16:03.916Z,3.80
2018-02-13T10:18:32.906Z,3.90
2018-02-13T10:21:01.796Z,3.90
2018-02-13T10:23:30.729Z,4.00
2018-02-13T10:25:58.859Z,3.90
2018-02-13T10:28:27.731Z,4.10
2018-02-13T10:30:55.877Z,4.10
2018-02-13T10:33:23.981Z,4.10
2018-02-13T10:35:52.853Z,4.20
2018-02-13T10:38:21.090Z,4.20
2018-02-13T10:40:49.175Z,4.30
2018-02-13T10:43:17.282Z,4.30
2018-02-13T10:45:45.398Z,4.40
2018-02-13T10:48:13.531Z,4.40
2018-02-13T10:50:42.415Z,4.50
2018-02-13T10:53:10.608Z,4.40
2018-02-13T10:55:39.475Z,4.60
2018-02-13T10:58:07.629Z,4.60
2018-02-13T11:00:41.575Z,4.70
2018-02-13T11:03:10.451Z,4.70
2018-02-13T11:05:38.649Z,4.70
2018-02-13T11:08:07.635Z,4.80
2018-02-13T11:10:36.523Z,4.80
2018-02-13T11:13:05.443Z,4.90
2018-02-13T11:15:33.585Z,4.90
2018-02-13T11:18:02.459Z,4.90
2018-02-13T11:20:31.431Z,4.90
2018-02-13T11:22:59.531Z,4.90
2018-02-13T11:25:27.714Z,5.00
2018-02-13T11:27:56.599Z,5.10
2018-02-13T11:30:25.509Z,5.10
2018-02-13T11:32:54.371Z,5.10
2018-02-13T11:35:23.414Z,5.20
2018-02-13T11:37:51.589Z,5.10
2018-02-13T11:40:19.667Z,5.20
2018-02-13T11:42:47.767Z,5.30
2018-02-13T11:45:15.905Z,5.40
2018-02-13T11:47:44.031Z,5.40
2018-02-13T11:50:12.915Z,5.50
2018-02-13T11:52:41.023Z,5.50
2018-02-13T11:55:09.179Z,5.50
2018-02-13T11:57:38.076Z,5.70
2018-02-13T12:00:06.204Z,5.60
2018-02-13T12:02:34.415Z,5.70
2018-02-13T12:05:03.313Z,5.70
2018-02-13T12:07:31.431Z,5.70
2018-02-13T12:09:59.655Z,5.80
2018-02-13T12:12:28.543Z,5.80
2018-02-13T12:14:57.451Z,5.80
2018-02-13T12:17:25.584Z,5.80
2018-02-13T12:19:53.750Z,5.90
2018-02-13T12:22:21.853Z,5.90
2018-02-13T12:24:50.847Z,6.00
2018-02-13T12:27:19.710Z,6.00
2018-02-13T12:29:47.822Z,6.00
2018-02-13T12:32:15.982Z,6.10
2018-02-13T12:34:44.866Z,6.10
2018-02-13T12:37:13.747Z,6.10
2018-02-13T12:39:42.640Z,6.20
2018-02-13T12:42:11.510Z,6.30
2018-02-13T12:44:39.646Z,6.20
2018-02-13T12:47:07.750Z,6.20
2018-02-13T12:49:35.896Z,6.30
2018-02-13T12:52:04.016Z,6.20
2018-02-13T12:54:32.118Z,6.30
2018-02-13T12:57:00.288Z,6.30
2018-02-13T12:59:29.266Z,6.40
2018-02-13T13:01:58.134Z,6.40
2018-02-13T13:04:26.360Z,6.30
2018-02-13T13:06:54.500Z,6.40
2018-02-13T13:09:23.402Z,6.50
2018-02-13T13:11:51.504Z,6.50
2018-02-13T13:14:19.630Z,6.50
2018-02-13T13:16:48.515Z,6.60
2018-02-13T13:19:17.414Z,6.70
2018-02-13T13:21:46.284Z,6.70
2018-02-13T13:24:14.513Z,6.70
2018-02-13T13:26:42.588Z,6.70
2018-02-13T13:29:10.726Z,6.70
2018-02-13T13:31:39.634Z,6.70
2018-02-13T13:34:07.896Z,6.70
2018-02-13T13:36:35.998Z,6.80
2018-02-13T13:39:04.096Z,6.80
2018-02-13T13:41:32.208Z,6.70
2018-02-13T13:44:00.382Z,6.70
2018-02-13T13:46:29.288Z,6.70
2018-02-13T13:48:57.397Z,6.70
2018-02-13T13:51:25.618Z,6.70
2018-02-13T13:53:53.743Z,6.70
2018-02-13T13:56:22.004Z,6.70
2018-02-13T13:58:50.109Z,6.70
2018-02-13T14:01:18.312Z,6.60
2018-02-13T14:03:47.214Z,6.60
2018-02-13T14:06:15.382Z,6.60
2018-02-13T14:08:43.504Z,6.60
2018-02-13T14:11:11.648Z,6.50
2018-02-13T14:13:39.755Z,6.50
2018-02-13T14:16:07.960Z,6.60
2018-02-13T14:18:36.844Z,6.60
2018-02-13T14:21:05.775Z,6.60
2018-02-13T14:23:33.856Z,6.60
2018-02-13T14:26:01.983Z,6.70
2018-02-13T14:28:30.877Z,6.60
2018-02-13T14:30:59.025Z,6.60
2018-02-13T14:33:27.153Z,6.60
2018-02-13T14:35:55.299Z,6.60
2018-02-13T14:38:23.405Z,6.60
2018-02-13T14:40:51.639Z,6.60
2018-02-13T14:43:20.769Z,6.60
2018-02-13T14:45:48.852Z,6.60
2018-02-13T14:48:16.977Z,6.60
2018-02-13T14:50:45.862Z,6.60
2018-02-13T14:53:14.731Z,6.70
2018-02-13T14:55:42.835Z,6.70
2018-02-13T14:58:11.823Z,6.70
2018-02-13T15:00:40.819Z,6.70
2018-02-13T15:03:09.682Z,6.70
2018-02-13T15:05:37.837Z,6.60
2018-02-13T15:08:05.950Z,6.70
2018-02-13T15:10:34.923Z,6.70
2018-02-13T15:13:03.054Z,6.70
2018-02-13T15:15:32.803Z,6.70
2018-02-13T15:18:15.803Z,6.70
2018-02-13T15:20:43.927Z,6.60
2018-02-13T15:23:12.840Z,6.60
2018-02-13T15:25:40.992Z,6.60
2018-02-13T15:28:09.123Z,6.70
2018-02-13T15:30:39.179Z,6.60
2018-02-13T15:33:07.302Z,6.70
2018-02-13T15:35:35.451Z,6.70
2018-02-13T15:38:03.566Z,6.60
2018-02-13T15:40:31.704Z,6.60
2018-02-13T15:42:59.858Z,6.60
2018-02-13T15:45:28.009Z,6.60
2018-02-13T15:47:56.107Z,6.50
2018-02-13T15:50:24.252Z,6.60
2018-02-13T15:52:53.122Z,6.50
2018-02-13T15:55:21.318Z,6.50
2018-02-13T15:57:50.198Z,6.40
2018-02-13T16:00:19.130Z,6.40
2018-02-13T16:02:47.382Z,6.40
2018-02-13T16:05:15.494Z,6.50
2018-02-13T16:07:43.630Z,6.40
2018-02-13T16:10:11.742Z,6.40
2018-02-13T16:12:39.866Z,6.40
2018-02-13T16:15:08.748Z,6.30
2018-02-13T16:17:37.749Z,6.20
2018-02-13T16:20:06.626Z,6.10
2018-02-13T16:22:35.660Z,6.00
2018-02-13T16:25:03.796Z,6.00
2018-02-13T16:27:32.666Z,5.90
2018-02-13T16:30:00.788Z,5.90
2018-02-13T16:32:28.930Z,5.80
2018-02-13T16:34:57.823Z,5.70
2018-02-13T16:37:26.695Z,5.70
2018-02-13T16:39:55.716Z,5.60
2018-02-13T16:42:23.838Z,5.60
2018-02-13T16:44:51.940Z,5.50
2018-02-13T16:47:20.125Z,5.50
2018-02-13T16:49:49.019Z,5.30
2018-02-13T16:52:17.926Z,5.20
2018-02-13T16:54:46.035Z,5.20
2018-02-13T16:57:14.126Z,5.20
2018-02-13T16:59:43.750Z,5.10
2018-02-13T17:02:12.660Z,5.00
2018-02-13T17:04:40.754Z,5.00
2018-02-13T17:07:08.885Z,4.90
2018-02-13T17:09:37.769Z,4.80
2018-02-13T17:12:06.696Z,4.70
2018-02-13T17:14:34.848Z,4.70
2018-02-13T17:17:03.775Z,4.60
2018-02-13T17:19:32.046Z,4.60
2018-02-13T17:22:00.204Z,4.50
2018-02-13T17:24:28.297Z,4.50
2018-02-13T17:26:56.400Z,4.40
2018-02-13T17:29:24.520Z,4.40
2018-02-13T17:31:52.676Z,4.30
2018-02-13T17:34:20.754Z,4.20
2018-02-13T17:36:49.641Z,4.20
2018-02-13T17:39:18.527Z,4.10
2018-02-13T17:41:47.435Z,4.10
2018-02-13T17:44:15.535Z,4.00
2018-02-13T17:46:43.631Z,4.00
2018-02-13T17:49:11.783Z,4.00
2018-02-13T17:51:39.885Z,4.00
2018-02-13T17:54:07.987Z,3.90
2018-02-13T17:56:36.179Z,3.90
2018-02-13T17:59:04.319Z,3.80
2018-02-13T18:01:33.191Z,3.70
2018-02-13T18:04:01.429Z,3.70
2018-02-13T18:06:29.567Z,3.60
2018-02-13T18:08:57.736Z,3.60
2018-02-13T18:11:26.635Z,3.50
2018-02-13T18:13:54.771Z,3.50
2018-02-13T18:16:22.899Z,3.40
2018-02-13T18:18:51.056Z,3.40
2018-02-13T18:21:19.229Z,3.40
2018-02-13T18:23:48.093Z,3.30
2018-02-13T18:26:16.976Z,3.20
2018-02-13T18:28:45.103Z,3.20
2018-02-13T18:31:13.227Z,3.20
2018-02-13T18:33:42.126Z,3.10
2018-02-13T18:36:10.995Z,3.10
2018-02-13T18:38:39.225Z,3.10
2018-02-13T18:41:07.372Z,3.00
2018-02-13T18:43:35.479Z,3.00
2018-02-13T18:46:03.711Z,3.00
2018-02-13T18:48:32.705Z,2.90
2018-02-13T18:51:02.176Z,2.90
2018-02-13T18:53:30.315Z,2.90
2018-02-13T18:55:58.419Z,2.90
2018-02-13T18:58:28.047Z,2.80
2018-02-13T19:00:56.955Z,2.80
2018-02-13T19:03:25.823Z,2.70
2018-02-13T19:05:54.718Z,2.70
2018-02-13T19:08:23.724Z,2.70
2018-02-13T19:10:52.607Z,2.60
2018-02-13T19:13:21.516Z,2.60
2018-02-13T19:15:49.634Z,2.60
2018-02-13T19:18:17.735Z,2.60
2018-02-13T19:20:46.618Z,2.50
2018-02-13T19:23:14.825Z,2.50
2018-02-13T19:25:43.702Z,2.50
2018-02-13T19:28:12.594Z,2.50
2018-02-13T19:30:41.582Z,2.50
2018-02-13T19:33:10.494Z,2.40
2018-02-13T19:35:38.648Z,2.40
2018-02-13T19:38:07.544Z,2.40
2018-02-13T19:40:35.656Z,2.40
2018-02-13T19:43:03.786Z,2.40
2018-02-13T19:45:31.910Z,2.40
2018-02-13T19:48:00.046Z,2.30
2018-02-13T19:50:28.142Z,2.30
2018-02-13T19:52:56.246Z,2.30
2018-02-13T19:55:24.476Z,2.30
2018-02-13T19:57:52.618Z,2.30
2018-02-13T20:00:21.508Z,2.30
2018-02-13T20:02:50.380Z,2.30
2018-02-13T20:05:18.567Z,2.30
2018-02-13T20:07:47.503Z,2.20
2018-02-13T20:10:15.630Z,2.20
2018-02-13T20:12:44.622Z,2.20
2018-02-13T20:15:13.512Z,2.20
2018-02-13T20:17:42.382Z,2.20
2018-02-13T20:20:10.526Z,2.20
2018-02-13T20:22:38.650Z,2.20
2018-02-13T20:25:07.534Z,2.10
2018-02-13T20:27:36.436Z,2.10
2018-02-13T20:30:05.355Z,2.10
2018-02-13T20:32:33.494Z,2.10
2018-02-13T20:35:02.366Z,2.10
2018-02-13T20:37:30.510Z,2.10
2018-02-13T20:39:58.738Z,2.10
2018-02-13T20:42:27.244Z,2.10
2018-02-13T20:44:55.324Z,2.10
2018-02-13T20:47:23.444Z,2.10
2018-02-13T20:49:52.342Z,2.10
2018-02-13T20:52:21.250Z,2.10
2018-02-13T20:54:49.414Z,2.10
2018-02-13T20:57:17.559Z,2.10
2018-02-13T20:59:45.674Z,2.00
2018-02-13T21:02:13.828Z,2.00
2018-02-13T21:04:42.711Z,2.00
2018-02-13T21:07:11.711Z,2.00
2018-02-13T21:09:40.609Z,2.00
2018-02-13T21:12:08.777Z,1.90
2018-02-13T21:14:37.640Z,2.00
2018-02-13T21:17:05.836Z,2.00
2018-02-13T21:19:34.728Z,2.00
2018-02-13T21:22:03.619Z,1.90
2018-02-13T21:24:31.797Z,1.90
2018-02-13T21:27:00.686Z,2.00
2018-02-13T21:29:29.671Z,2.00
2018-02-13T21:31:58.541Z,2.00
2018-02-13T21:34:26.743Z,2.00
2018-02-13T21:36:55.616Z,2.10
2018-02-13T21:39:24.611Z,2.00
2018-02-13T21:41:53.475Z,2.10
2018-02-13T21:44:21.575Z,2.00
2018-02-13T21:46:50.463Z,2.10
2018-02-13T21:49:19.351Z,2.10
2018-02-13T21:51:47.451Z,2.00
2018-02-13T21:54:15.559Z,2.00
2018-02-13T21:56:43.679Z,2.00
2018-02-13T21:59:12.587Z,2.00
2018-02-13T22:01:41.561Z,1.90
2018-02-13T22:04:10.446Z,1.90
2018-02-13T22:06:39.331Z,1.90
2018-02-13T22:09:08.223Z,1.90
2018-02-13T22:11:37.097Z,1.80
2018-02-13T22:14:05.213Z,1.80
2018-02-13T22:16:33.307Z,1.80
2018-02-13T22:19:01.435Z,1.80
2018-02-13T22:21:30.303Z,1.70
2018-02-13T22:23:58.495Z,1.70
2018-02-13T22:26:27.383Z,1.70
2018-02-13T22:28:56.271Z,1.60
2018-02-13T22:31:25.162Z,1.60
2018-02-13T22:33:54.038Z,1.60
2018-02-13T22:36:22.227Z,1.50
2018-02-13T22:38:51.116Z,1.50
2018-02-13T22:41:19.995Z,1.40
2018-02-13T22:43:48.094Z,1.40
2018-02-13T22:46:16.266Z,1.40
2018-02-13T22:48:44.383Z,1.40
2018-02-13T22:51:12.492Z,1.30
2018-02-13T22:53:41.375Z,1.20
2018-02-13T22:56:10.280Z,1.20
2018-02-13T22:58:39.175Z,1.20
2018-02-13T23:01:07.335Z,1.20
2018-02-13T23:03:36.203Z,1.10
2018-02-13T23:06:04.328Z,1.10
2018-02-13T23:08:32.426Z,1.10
2018-02-13T23:11:00.539Z,1.10
2018-02-13T23:13:29.411Z,1.00
2018-02-13T23:15:57.542Z,1.00
2018-02-13T23:18:25.817Z,1.00
2018-02-13T23:20:53.960Z,1.00
2018-02-13T23:23:22.846Z,0.90
2018-02-13T23:25:51.746Z,0.90
2018-02-13T23:28:20.606Z,0.90
2018-02-13T23:30:48.748Z,0.80
2018-02-13T23:33:16.852Z,0.80
2018-02-13T23:35:44.958Z,0.80
2018-02-13T23:38:13.070Z,0.80
2018-02-13T23:40:41.202Z,0.80
2018-02-13T23:43:09.314Z,0.80
2018-02-13T23:45:37.418Z,0.70
2018-02-13T23:48:06.322Z,0.70
2018-02-13T23:50:35.210Z,0.70
2018-02-13T23:53:04.072Z,0.60
2018-02-13T23:55:32.162Z,0.60
2018-02-13T23:58:01.057Z,0.70
